Time;durP1;ratioP1;P1;durP2;ratioP2;P2;SDS_P1;SDS_P2;PMS_P1;PMS_P2;Temp;Humidity;BMP_temperature;BMP_pressure;BME280_temperature;BME280_humidity;BME280_pressure;Samples;Min_cycle;Max_cycle;Signal;HPM_P1;HPM_P2
2023/05/28 00:02:20;;;;;;;8.32;5.75;;;;;;;15.92;100.00;64634.16;5032595;28;20648;-56
2023/05/28 00:04:46;;;;;;;9.25;5.97;;;;;;;15.86;100.00;64630.09;5050540;28;20241;-56
2023/05/28 00:07:11;;;;;;;7.28;5.53;;;;;;;15.88;100.00;64634.84;5050550;28;20185;-57
2023/05/28 00:09:37;;;;;;;9.07;5.90;;;;;;;15.84;100.00;64627.88;5050380;28;20217;-57
2023/05/28 00:12:03;;;;;;;7.03;5.82;;;;;;;15.77;100.00;64622.75;5050547;28;20181;-60
2023/05/28 00:14:29;;;;;;;9.30;6.00;;;;;;;15.75;100.00;64618.00;5050780;28;20201;-58
2023/05/28 00:16:55;;;;;;;10.35;5.95;;;;;;;15.83;100.00;64627.34;5050766;28;20193;-62
2023/05/28 00:19:21;;;;;;;8.98;6.30;;;;;;;15.84;100.00;64628.44;5050320;28;20216;-60
2023/05/28 00:21:47;;;;;;;7.93;5.57;;;;;;;15.96;100.00;64643.63;5050299;28;20201;-60
2023/05/28 00:24:13;;;;;;;6.05;5.47;;;;;;;15.93;100.00;64635.81;5050377;28;20214;-61
2023/05/28 00:26:39;;;;;;;9.40;5.55;;;;;;;15.88;100.00;64635.38;5050411;28;20247;-65
2023/05/28 00:29:04;;;;;;;15.32;6.03;;;;;;;15.95;100.00;64642.53;5050134;28;20296;-58
2023/05/28 00:31:30;;;;;;;5.00;4.47;;;;;;;15.80;100.00;64623.50;5050329;28;20190;-58
2023/05/28 00:33:56;;;;;;;5.85;5.25;;;;;;;15.50;100.00;64593.03;5050457;28;20213;-58
2023/05/28 00:36:22;;;;;;;5.63;5.13;;;;;;;15.39;100.00;64578.38;5050215;28;20655;-59
2023/05/28 00:38:48;;;;;;;9.85;6.05;;;;;;;15.32;100.00;64573.22;5051698;28;20206;-58
2023/05/28 00:41:22;;;;;;;6.70;5.65;;;;;;;15.36;100.00;64575.06;5051321;28;20200;-59
2023/05/28 00:43:51;;;;;;;9.38;5.70;;;;;;;15.42;100.00;64579.13;5053164;28;20248;-58
2023/05/28 00:46:21;;;;;;;10.00;5.70;;;;;;;15.55;100.00;64598.53;5035190;28;20193;-59
2023/05/28 00:48:48;;;;;;;7.35;5.93;;;;;;;15.54;100.00;64592.34;5053414;28;20711;-58
2023/05/28 00:51:14;;;;;;;8.25;6.57;;;;;;;15.43;100.00;64583.34;5053420;28;20209;-58
2023/05/28 00:53:41;;;;;;;10.57;7.20;;;;;;;15.45;100.00;64585.00;5053347;28;20221;-59
2023/05/28 00:56:09;;;;;;;8.20;6.93;;;;;;;15.29;100.00;64567.91;5051911;28;20686;-60
2023/05/28 00:58:39;;;;;;;10.15;7.60;;;;;;;15.07;100.00;64543.72;5053453;28;20282;-58
2023/05/28 01:01:09;;;;;;;9.88;7.57;;;;;;;15.22;100.00;64560.22;5053291;28;20186;-57
2023/05/28 01:03:39;;;;;;;8.50;6.75;;;;;;;15.14;100.00;64551.44;5053366;28;20221;-58
2023/05/28 01:06:11;;;;;;;8.63;6.97;;;;;;;14.98;100.00;64533.84;5053220;28;20680;-57
2023/05/28 01:08:40;;;;;;;8.95;6.30;;;;;;;14.89;100.00;64523.94;5053041;28;20220;-58
2023/05/28 01:11:10;;;;;;;8.63;6.43;;;;;;;14.75;100.00;64508.56;5053415;28;20213;-60
2023/05/28 01:13:37;;;;;;;8.80;6.25;;;;;;;14.73;100.00;64506.34;5052980;28;20228;-59
2023/05/28 01:16:03;;;;;;;8.35;5.35;;;;;;;14.73;100.00;64509.44;5051721;28;20685;-58
2023/05/28 01:18:30;;;;;;;5.15;4.50;;;;;;;14.77;100.00;64511.31;5053274;28;20209;-59
2023/05/28 01:20:55;;;;;;;6.47;5.22;;;;;;;14.85;100.00;64522.06;5053016;28;20181;-59
2023/05/28 01:23:23;;;;;;;6.80;5.45;;;;;;;14.78;100.00;64511.84;5052979;28;20229;-59
2023/05/28 01:25:52;;;;;;;6.97;4.78;;;;;;;14.80;100.00;64514.63;5052977;28;20190;-59
2023/05/28 01:28:19;;;;;;;7.07;4.93;;;;;;;14.69;100.00;64504.50;5052954;28;20312;-58
2023/05/28 01:30:45;;;;;;;6.10;4.40;;;;;;;14.68;100.00;64501.44;5052796;28;20193;-58
2023/05/28 01:33:11;;;;;;;6.47;5.05;;;;;;;14.64;100.00;64497.03;5052846;28;20288;-60
2023/05/28 01:35:41;;;;;;;8.10;5.28;;;;;;;14.57;100.00;64491.31;5052812;28;20194;-61
2023/05/28 01:38:09;;;;;;;6.15;5.22;;;;;;;14.46;100.00;64476.69;5052813;28;20217;-61
2023/05/28 01:40:37;;;;;;;6.07;4.75;;;;;;;14.56;100.00;64490.78;5052552;28;20717;-61
2023/05/28 01:43:03;;;;;;;4.63;4.22;;;;;;;14.59;100.00;64490.97;5052744;28;20386;-61
2023/05/28 01:45:30;;;;;;;4.90;4.40;;;;;;;14.57;100.00;64488.78;5052621;28;20667;-60
2023/05/28 01:47:55;;;;;;;6.13;4.57;;;;;;;14.53;100.00;64484.94;5052566;28;20243;-61
2023/05/28 01:50:21;;;;;;;5.05;3.60;;;;;;;14.56;100.00;64488.25;5052591;28;20277;-61
2023/05/28 01:52:48;;;;;;;5.40;4.90;;;;;;;14.67;100.00;64497.78;5052104;28;20189;-61
2023/05/28 01:55:14;;;;;;;5.82;4.38;;;;;;;14.78;100.00;64514.94;5052445;28;20194;-59
2023/05/28 01:57:40;;;;;;;6.45;4.93;;;;;;;14.75;100.00;64506.00;5052563;28;20189;-59
2023/05/28 02:00:06;;;;;;;4.70;4.30;;;;;;;14.68;100.00;64498.88;5052229;28;20213;-60
2023/05/28 02:02:32;;;;;;;5.47;4.25;;;;;;;14.61;100.00;64495.69;5051137;28;20243;-58
2023/05/28 02:04:58;;;;;;;4.40;3.90;;;;;;;14.65;100.00;64500.09;5052414;28;20245;-56
2023/05/28 02:07:23;;;;;;;6.78;4.38;;;;;;;14.60;100.00;64492.63;5052196;28;20269;-57
2023/05/28 02:09:49;;;;;;;4.88;4.00;;;;;;;14.64;100.00;64497.03;5052246;28;20216;-58
2023/05/28 02:12:15;;;;;;;5.13;4.60;;;;;;;14.63;100.00;64493.38;5052228;28;20193;-57
2023/05/28 02:14:42;;;;;;;4.32;3.80;;;;;;;14.59;100.00;64494.06;5052245;28;20227;-57
2023/05/28 02:17:09;;;;;;;5.30;4.10;;;;;;;14.59;100.00;64488.44;5052027;28;20190;-57
2023/05/28 02:19:34;;;;;;;4.72;3.92;;;;;;;14.73;100.00;64503.81;5052048;28;20711;-58
2023/05/28 02:21:59;;;;;;;7.07;4.82;;;;;;;14.72;100.00;64505.25;5052037;28;20268;-61
2023/05/28 02:24:25;;;;;;;10.73;4.15;;;;;;;14.73;100.00;64509.44;5052028;28;20213;-60
2023/05/28 02:26:51;;;;;;;4.38;3.97;;;;;;;14.61;100.00;64493.72;5052238;28;20674;-59
2023/05/28 02:29:16;;;;;;;4.68;4.25;;;;;;;14.68;100.00;64498.88;5052167;28;20245;-58
2023/05/28 02:31:42;;;;;;;4.45;4.05;;;;;;;14.61;100.00;64493.72;5052094;28;20178;-58
2023/05/28 02:34:07;;;;;;;5.18;3.97;;;;;;;14.61;100.00;64493.72;5052334;28;20271;-57
2023/05/28 02:36:33;;;;;;;4.65;3.92;;;;;;;14.67;100.00;64499.75;5051979;28;20185;-57
2023/05/28 02:38:59;;;;;;;6.18;4.20;;;;;;;14.58;100.00;64487.34;5051905;28;20228;-57
2023/05/28 02:41:26;;;;;;;5.70;4.10;;;;;;;14.60;100.00;64492.06;5051642;28;20220;-57
2023/05/28 02:43:51;;;;;;;5.00;4.13;;;;;;;14.57;100.00;64491.88;5051593;28;20228;-57
2023/05/28 02:46:16;;;;;;;6.15;4.22;;;;;;;14.73;100.00;64506.91;5051548;28;20181;-61
2023/05/28 02:48:49;;;;;;;4.35;3.92;;;;;;;14.81;100.00;64517.69;5051803;28;20215;-58
2023/05/28 02:51:15;;;;;;;4.82;3.83;;;;;;;14.74;100.00;64508.03;5051502;28;20285;-58
2023/05/28 02:53:40;;;;;;;5.32;4.50;;;;;;;14.73;100.00;64509.44;5051731;28;20300;-59
2023/05/28 02:56:05;;;;;;;4.13;3.72;;;;;;;14.76;100.00;64509.66;5051394;28;20181;-57
2023/05/28 02:58:32;;;;;;;4.30;3.90;;;;;;;14.79;100.00;64516.03;5051530;28;20213;-57
2023/05/28 03:00:57;;;;;;;6.75;3.92;;;;;;;14.79;100.00;64516.03;5051520;28;20269;-58
2023/05/28 03:03:23;;;;;;;4.97;4.13;;;;;;;14.94;100.00;64530.00;5032611;28;20304;-57
2023/05/28 03:05:50;;;;;;;4.78;4.30;;;;;;;15.01;100.00;64537.69;5051324;28;20721;-56
2023/05/28 03:08:16;;;;;;;4.13;3.72;;;;;;;14.86;100.00;64518.66;5051288;28;20232;-63
2023/05/28 03:10:41;;;;;;;6.80;4.30;;;;;;;14.91;100.00;64528.69;5051234;28;20568;-60
2023/05/28 03:13:08;;;;;;;4.88;4.05;;;;;;;14.87;100.00;64524.84;5051245;28;20212;-59
2023/05/28 03:15:33;;;;;;;6.20;3.80;;;;;;;15.01;100.00;64537.69;5051205;28;20225;-57
2023/05/28 03:17:59;;;;;;;4.57;4.18;;;;;;;15.03;100.00;64542.44;5051142;28;20741;-58
2023/05/28 03:20:25;;;;;;;6.32;4.10;;;;;;;15.05;100.00;64539.53;5051072;28;20194;-58
2023/05/28 03:22:56;;;;;;;5.25;3.80;;;;;;;15.11;100.00;64548.13;5050843;28;20197;-58
2023/05/28 03:25:21;;;;;;;4.88;4.25;;;;;;;15.00;100.00;64534.06;5051221;28;20225;-58
2023/05/28 03:27:46;;;;;;;6.00;5.38;;;;;;;15.08;100.00;64547.94;5050762;28;20294;-58
2023/05/28 03:30:14;;;;;;;6.60;4.13;;;;;;;15.13;100.00;64552.88;5050957;28;20247;-58
2023/05/28 03:32:40;;;;;;;18.60;13.30;;;;;;;15.17;100.00;64554.19;5051015;28;20280;-57
2023/05/28 03:35:05;;;;;;;5.80;5.20;;;;;;;15.37;100.00;64576.19;5050720;28;20735;-57
2023/05/28 03:37:31;;;;;;;7.45;5.97;;;;;;;15.40;100.00;64582.00;5050784;28;20185;-57
2023/05/28 03:39:57;;;;;;;4.25;3.88;;;;;;;15.34;100.00;64573.44;5050805;28;20201;-57
2023/05/28 03:42:22;;;;;;;4.70;4.18;;;;;;;15.29;100.00;64564.84;5050637;28;20182;-56
2023/05/28 03:44:48;;;;;;;6.60;4.85;;;;;;;15.33;100.00;64569.78;5050549;28;20243;-57
2023/05/28 03:47:14;;;;;;;12.32;8.98;;;;;;;15.27;100.00;64567.72;5050700;28;20268;-58
2023/05/28 03:49:39;;;;;;;4.60;4.07;;;;;;;15.31;100.00;64569.59;5050576;28;20213;-57
2023/05/28 03:52:05;;;;;;;14.05;10.57;;;;;;;15.35;100.00;64571.44;5050551;28;20188;-57
2023/05/28 03:54:32;;;;;;;7.70;6.90;;;;;;;15.50;100.00;64590.50;5050443;28;20789;-57
2023/05/28 03:56:57;;;;;;;14.93;11.20;;;;;;;15.60;100.00;64598.94;5050546;28;20276;-58
2023/05/28 03:59:23;;;;;;;5.15;4.65;;;;;;;15.56;100.00;64599.63;5050355;28;20292;-58
2023/05/28 04:01:48;;;;;;;6.00;5.40;;;;;;;15.59;100.00;64598.41;5050721;28;20189;-56
2023/05/28 04:04:15;;;;;;;8.40;6.63;;;;;;;15.62;100.00;64601.16;5050308;28;20721;-57
2023/05/28 04:06:41;;;;;;;7.18;4.93;;;;;;;15.69;100.00;64611.41;5032578;28;20186;-59
2023/05/28 04:09:07;;;;;;;5.80;4.32;;;;;;;15.58;100.00;64599.28;5050151;28;20220;-58
2023/05/28 04:11:34;;;;;;;5.20;4.70;;;;;;;15.56;100.00;64594.56;5050352;28;20561;-60
2023/05/28 04:14:00;;;;;;;5.78;5.10;;;;;;;15.55;100.00;64596.00;5050344;28;20217;-59
2023/05/28 04:16:26;;;;;;;6.93;5.30;;;;;;;15.70;100.00;64612.50;5053306;28;20204;-60
2023/05/28 04:18:52;;;;;;;4.90;4.40;;;;;;;15.68;100.00;64610.28;5053576;28;20271;-59
2023/05/28 04:21:18;;;;;;;7.32;4.72;;;;;;;15.66;100.00;64608.09;5053984;28;20181;-57
2023/05/28 04:23:44;;;;;;;7.30;4.38;;;;;;;15.55;100.00;64596.56;5053637;28;20221;-57
2023/05/28 04:26:09;;;;;;;7.03;4.90;;;;;;;15.61;100.00;64600.63;5053719;28;20184;-57
2023/05/28 04:28:35;;;;;;;5.60;4.68;;;;;;;15.65;100.00;64610.09;5053512;28;20217;-60
2023/05/28 04:31:01;;;;;;;7.00;4.82;;;;;;;15.58;100.00;64599.28;5053636;28;20216;-61
2023/05/28 04:33:30;;;;;;;7.60;5.07;;;;;;;15.67;100.00;64609.75;5053427;28;20221;-59
2023/05/28 04:35:57;;;;;;;6.45;5.50;;;;;;;15.73;100.00;64615.81;5053738;28;20262;-60
2023/05/28 04:38:23;;;;;;;6.05;5.40;;;;;;;15.77;100.00;64622.75;5053591;28;20216;-60
2023/05/28 04:40:49;;;;;;;6.47;4.63;;;;;;;15.91;100.00;64635.59;5053561;28;20178;-59
2023/05/28 04:43:15;;;;;;;4.90;4.45;;;;;;;15.94;100.00;64636.34;5053620;28;20634;-61
2023/05/28 04:45:41;;;;;;;6.95;4.78;;;;;;;16.18;100.00;64667.84;5053548;28;20645;-61
2023/05/28 04:48:09;;;;;;;6.97;4.90;;;;;;;16.13;100.00;64659.25;5053616;28;20731;-59
2023/05/28 04:50:35;;;;;;;5.35;4.80;;;;;;;16.09;100.00;64655.41;5053422;28;20185;-60
2023/05/28 04:53:00;;;;;;;6.18;4.97;;;;;;;16.11;100.00;64655.06;5053567;28;20190;-60
2023/05/28 04:55:26;;;;;;;9.77;5.85;;;;;;;16.10;100.00;64656.50;5052532;28;20323;-59
2023/05/28 04:57:51;;;;;;;6.18;5.50;;;;;;;16.09;100.00;64655.41;5053161;28;20193;-58
2023/05/28 05:00:17;;;;;;;6.30;4.72;;;;;;;16.05;100.00;64647.91;5053654;28;20178;-59
2023/05/28 05:02:43;;;;;;;6.55;5.45;;;;;;;16.09;100.00;64655.41;5053307;28;20579;-58
2023/05/28 05:05:27;;;;;;;6.82;5.50;;;;;;;16.09;100.00;64657.94;5053326;28;20221;-58
2023/05/28 05:07:52;;;;;;;8.75;6.05;;;;;;;15.90;100.00;64635.06;5053442;28;20198;-59
2023/05/28 05:10:17;;;;;;;8.65;5.68;;;;;;;15.87;100.00;64631.19;5053230;28;20188;-59
2023/05/28 05:12:43;;;;;;;8.32;6.10;;;;;;;15.79;100.00;64620.41;5053154;28;20197;-61
2023/05/28 05:15:08;;;;;;;7.85;5.65;;;;;;;15.79;100.00;64619.84;5053072;28;20205;-61
2023/05/28 05:17:34;;;;;;;10.43;6.57;;;;;;;15.71;100.00;64613.59;5053125;28;20197;-61
2023/05/28 05:20:02;;;;;;;10.88;7.15;;;;;;;15.80;100.00;64620.94;5053018;28;20274;-60
2023/05/28 05:22:28;;;;;;;8.52;6.78;;;;;;;15.87;100.00;64631.19;5052928;28;20193;-61
2023/05/28 05:24:53;;;;;;;12.50;6.20;;;;;;;15.89;100.00;64633.97;5052935;28;20213;-62
2023/05/28 05:27:18;;;;;;;8.98;6.35;;;;;;;15.91;100.00;64638.16;5052049;28;20181;-61
2023/05/28 05:29:44;;;;;;;9.05;5.70;;;;;;;16.01;100.00;64648.59;5052817;28;20691;-60
2023/05/28 05:32:10;;;;;;;9.65;5.55;;;;;;;16.09;100.00;64652.88;5052796;28;20185;-61
2023/05/28 05:34:36;;;;;;;7.63;6.45;;;;;;;16.12;100.00;64658.69;5053200;28;20300;-60
2023/05/28 05:37:02;;;;;;;9.52;6.80;;;;;;;16.26;100.00;64674.13;5052788;28;20185;-60
2023/05/28 05:39:28;;;;;;;11.07;7.55;;;;;;;16.17;100.00;64664.22;5053079;28;20296;-61
2023/05/28 05:41:53;;;;;;;9.60;6.50;;;;;;;16.09;100.00;64654.84;5052771;28;20190;-60
2023/05/28 05:44:19;;;;;;;7.65;5.90;;;;;;;16.24;100.00;64671.91;5052848;28;20601;-59
2023/05/28 05:46:44;;;;;;;9.85;5.68;;;;;;;16.26;100.00;64673.56;5052751;28;20239;-63
2023/05/28 05:49:10;;;;;;;7.18;5.32;;;;;;;16.32;100.00;64680.72;5052372;28;20645;-60
2023/05/28 05:51:35;;;;;;;11.75;5.55;;;;;;;16.43;100.00;64690.28;5052538;28;20644;-61
2023/05/28 05:54:02;;;;;;;8.02;6.10;;;;;;;16.46;100.00;64695.59;5052809;28;20771;-61
2023/05/28 05:56:27;;;;;;;9.32;6.00;;;;;;;16.43;100.00;64692.84;5052325;28;20193;-60
2023/05/28 05:58:53;;;;;;;7.57;5.15;;;;;;;16.34;100.00;64682.38;5052801;28;20221;-60
2023/05/28 06:01:20;;;;;;;9.35;6.15;;;;;;;16.37;100.00;64683.69;5052365;28;20652;-60
2023/05/28 06:03:45;;;;;;;8.50;5.40;;;;;;;16.45;100.00;64695.03;5051327;28;20223;-57
2023/05/28 06:06:11;;;;;;;8.07;6.20;;;;;;;16.46;100.00;64693.03;5051389;28;20562;-57
2023/05/28 06:08:37;;;;;;;8.43;6.22;;;;;;;16.29;100.00;64679.97;5052204;28;20217;-57
2023/05/28 06:11:03;;;;;;;8.73;6.85;;;;;;;16.18;100.00;64662.22;5052314;28;20686;-58
2023/05/28 06:13:29;;;;;;;8.07;5.88;;;;;;;16.21;100.00;64668.63;5052074;28;20213;-59
2023/05/28 06:15:54;;;;;;;9.02;6.85;;;;;;;16.26;100.00;64673.56;5052204;28;20596;-58
2023/05/28 06:18:21;;;;;;;8.13;6.25;;;;;;;16.37;100.00;64686.22;5052403;28;20209;-59
2023/05/28 06:20:49;;;;;;;9.30;5.78;;;;;;;16.40;100.00;64689.53;5051993;28;20668;-58
2023/05/28 06:23:15;;;;;;;9.80;6.35;;;;;;;16.58;100.00;64709.34;5034066;28;20206;-57
2023/05/28 06:25:40;;;;;;;7.10;6.40;;;;;;;16.72;100.00;64722.22;5051851;28;20192;-57
2023/05/28 06:28:06;;;;;;;15.63;6.53;;;;;;;16.86;100.00;64737.13;5052101;28;20239;-60
2023/05/28 06:30:31;;;;;;;6.80;6.10;;;;;;;16.84;100.00;64734.34;5052055;28;20188;-59
2023/05/28 06:32:57;;;;;;;9.07;6.95;;;;;;;16.63;100.00;64711.78;5051757;28;20193;-58
2023/05/28 06:35:22;;;;;;;10.98;6.25;;;;;;;16.66;100.00;64717.63;5051948;28;20189;-57
2023/05/28 06:37:48;;;;;;;8.15;6.40;;;;;;;16.67;100.00;64718.72;5051839;28;20189;-58
2023/05/28 06:40:13;;;;;;;6.60;5.88;;;;;;;16.65;100.00;64714.53;5053329;28;20207;-60
2023/05/28 06:42:46;;;;;;;13.07;8.63;;;;;;;16.59;100.00;64713.00;5051628;28;20651;-60
2023/05/28 06:45:11;;;;;;;11.88;7.57;;;;;;;16.63;100.00;64714.88;5051663;28;20229;-58
2023/05/28 06:47:37;;;;;;;11.82;6.60;;;;;;;16.59;100.00;64710.47;5051713;28;20197;-59
2023/05/28 06:50:03;;;;;;;9.60;6.88;;;;;;;16.65;100.00;64714.53;5033653;28;20733;-58
2023/05/28 06:52:28;;;;;;;9.98;6.03;;;;;;;16.70;100.00;64720.03;5051593;28;20258;-60
2023/05/28 06:54:54;;;;;;;7.63;6.18;;;;;;;16.67;100.00;64716.72;5051376;28;20617;-58
2023/05/28 06:57:20;;;;;;;9.93;6.18;;;;;;;16.66;100.00;64715.09;5051626;28;20181;-60
2023/05/28 06:59:46;;;;;;;8.55;5.22;;;;;;;16.90;100.00;64743.50;5051286;28;20802;-59
2023/05/28 07:02:11;;;;;;;9.15;5.78;;;;;;;16.83;100.00;64733.78;5033549;28;20327;-59
2023/05/28 07:04:37;;;;;;;5.53;5.00;;;;;;;16.84;100.00;64734.34;5051467;28;20609;-59
2023/05/28 07:07:03;;;;;;;6.15;5.18;;;;;;;16.90;100.00;64741.50;5051248;28;20193;-58
2023/05/28 07:09:29;;;;;;;6.45;5.32;;;;;;;16.94;100.00;64745.91;5051369;28;20224;-59
2023/05/28 07:11:55;;;;;;;9.55;5.47;;;;;;;16.93;100.00;64744.28;5051142;28;20193;-59
2023/05/28 07:14:20;;;;;;;8.35;5.40;;;;;;;16.99;100.00;64753.44;5051143;28;20221;-59
2023/05/28 07:16:46;;;;;;;5.85;4.88;;;;;;;17.35;100.00;64788.00;5051065;28;20189;-57
2023/05/28 07:19:11;;;;;;;6.00;5.25;;;;;;;17.28;100.00;64785.91;5050963;28;20691;-58
2023/05/28 07:21:38;;;;;;;6.07;4.80;;;;;;;17.20;100.00;64776.56;5051003;28;20189;-57
2023/05/28 07:24:05;;;;;;;5.57;4.63;;;;;;;17.52;100.00;64809.28;5033170;28;20225;-58
2023/05/28 07:26:30;;;;;;;6.28;5.10;;;;;;;17.44;100.00;64803.00;5051062;28;20209;-59
2023/05/28 07:28:55;;;;;;;6.40;4.43;;;;;;;17.56;100.00;64813.69;5050791;28;20288;-57
2023/05/28 07:31:21;;;;;;;5.88;4.85;;;;;;;17.57;100.00;64815.34;5051125;28;20248;-57
2023/05/28 07:33:46;;;;;;;6.50;5.82;;;;;;;17.68;100.00;64826.91;5050910;28;20317;-58
2023/05/28 07:36:12;;;;;;;4.95;4.10;;;;;;;17.45;100.00;64804.09;5051060;28;20197;-57
2023/05/28 07:38:37;;;;;;;7.72;4.65;;;;;;;17.78;100.00;64840.50;5050674;28;20692;-61
2023/05/28 07:41:02;;;;;;;5.13;4.05;;;;;;;17.47;100.00;64804.28;5050904;28;20276;-60
2023/05/28 07:43:28;;;;;;;4.45;4.03;;;;;;;17.51;100.00;64810.75;5050734;28;20236;-57
2023/05/28 07:45:53;;;;;;;7.00;5.10;;;;;;;17.57;100.00;64815.34;5050606;28;20185;-57
2023/05/28 07:48:19;;;;;;;6.70;5.07;;;;;;;17.63;100.00;64824.50;5033034;28;20241;-57
2023/05/28 07:50:44;;;;;;;4.00;3.60;;;;;;;17.78;100.00;64837.38;5054345;28;20713;-57
2023/05/28 07:53:10;;;;;;;6.90;4.25;;;;;;;17.79;100.00;64839.06;5057335;28;20223;-57
2023/05/28 07:55:36;;;;;;;5.68;4.15;;;;;;;17.63;100.00;64823.97;5056248;28;20288;-57
2023/05/28 07:58:01;;;;;;;9.88;4.90;;;;;;;17.92;100.00;64853.38;5057033;28;20185;-56
2023/05/28 08:00:27;;;;;;;4.50;4.03;;;;;;;17.95;100.00;64856.69;5057138;28;20185;-57
2023/05/28 08:02:52;;;;;;;3.72;2.90;;;;;;;17.80;100.00;64840.16;5057095;28;20231;-57
2023/05/28 08:05:18;;;;;;;3.78;3.28;;;;;;;17.83;100.00;64843.47;5055762;28;20208;-59
2023/05/28 08:07:44;;;;;;;4.75;3.97;;;;;;;17.90;100.00;64851.16;5057149;28;20201;-57
2023/05/28 08:10:10;;;;;;;5.40;4.18;;;;;;;17.84;100.00;64842.00;5057122;28;20241;-59
2023/05/28 08:12:35;;;;;;;3.60;3.20;;;;;;;17.74;100.00;64833.53;5057228;28;20220;-56
2023/05/28 08:15:01;;;;;;;5.53;3.70;;;;;;;17.59;100.00;64822.63;5056977;28;20303;-58
2023/05/28 08:17:30;;;;;;;5.22;3.80;;;;;;;17.49;100.00;64811.09;5056984;28;20181;-60
2023/05/28 08:19:55;;;;;;;6.25;4.13;;;;;;;17.71;100.00;64830.22;5056925;28;20224;-58
2023/05/28 08:22:20;;;;;;;7.18;4.75;;;;;;;17.91;100.00;64854.81;5057019;28;20640;-57
2023/05/28 08:24:46;;;;;;;4.80;3.65;;;;;;;17.98;100.00;64857.44;5056773;28;20213;-57
2023/05/28 08:27:11;;;;;;;4.15;3.63;;;;;;;18.50;100.00;64918.81;5056830;28;20515;-57
2023/05/28 08:29:37;;;;;;;8.20;3.50;;;;;;;18.09;100.00;64871.56;5039144;28;20205;-58
2023/05/28 08:32:02;;;;;;;5.22;3.42;;;;;;;18.22;100.00;64889.00;5055456;28;20192;-58
2023/05/28 08:34:28;;;;;;;5.55;4.13;;;;;;;18.50;100.00;64916.81;5056708;28;20216;-58
2023/05/28 08:36:54;;;;;;;4.95;3.25;;;;;;;18.60;100.00;64927.84;5038853;28;20208;-58
2023/05/28 08:39:20;;;;;;;4.35;2.92;;;;;;;18.76;100.00;64947.50;5056629;28;20202;-58
2023/05/28 08:41:46;;;;;;;3.10;2.80;;;;;;;18.85;100.00;64955.41;5056833;28;20687;-58
2023/05/28 08:44:11;;;;;;;2.78;2.45;;;;;;;18.87;100.00;64957.63;5056719;28;20241;-56
2023/05/28 08:46:37;;;;;;;2.97;2.63;;;;;;;18.75;100.00;64943.81;5056819;28;20664;-59
2023/05/28 08:49:03;;;;;;;5.35;3.00;;;;;;;18.90;100.00;64957.84;5056645;28;20209;-57
2023/05/28 08:51:33;;;;;;;3.50;2.63;;;;;;;18.92;100.00;64965.16;5056492;28;20631;-58
2023/05/28 08:53:59;;;;;;;5.07;2.60;;;;;;;18.67;100.00;64935.00;5056963;28;20209;-60
2023/05/28 08:56:25;;;;;;;4.03;2.40;;;;;;;18.98;100.00;64969.22;5056517;28;20235;-60
2023/05/28 08:58:51;;;;;;;5.57;3.35;;;;;;;18.94;100.00;64967.91;5056363;28;20193;-60
2023/05/28 09:01:17;;;;;;;4.18;2.00;;;;;;;19.28;100.00;65005.44;5054295;28;20216;-60
2023/05/28 09:03:42;;;;;;;4.47;2.63;;;;;;;19.23;98.84;64996.78;5053483;28;20213;-59
2023/05/28 09:06:08;;;;;;;2.90;2.40;;;;;;;19.05;100.00;64976.94;5053397;28;20616;-59
2023/05/28 09:08:34;;;;;;;3.20;2.90;;;;;;;19.04;100.00;64975.84;5053371;28;20213;-59
2023/05/28 09:11:12;;;;;;;3.60;2.67;;;;;;;19.06;100.00;64978.59;5053095;28;20192;-59
2023/05/28 09:13:42;;;;;;;4.25;2.92;;;;;;;19.13;100.00;64988.88;5053246;28;20216;-58
2023/05/28 09:16:07;;;;;;;5.13;3.85;;;;;;;18.94;100.00;64964.78;5053044;28;20193;-59
2023/05/28 09:18:32;;;;;;;4.53;3.30;;;;;;;18.78;100.00;64950.25;5053245;28;20205;-58
2023/05/28 09:21:06;;;;;;;9.88;5.25;;;;;;;18.66;100.00;64933.91;5052911;28;20745;-60
2023/05/28 09:23:32;;;;;;;3.42;2.97;;;;;;;18.47;100.00;64912.94;5051507;28;20231;-59
2023/05/28 09:26:00;;;;;;;5.13;3.58;;;;;;;18.42;100.00;64907.97;5052620;28;20198;-61
2023/05/28 09:28:27;;;;;;;6.72;4.72;;;;;;;18.36;100.00;64904.44;5053096;28;20229;-60
2023/05/28 09:31:01;;;;;;;7.18;3.58;;;;;;;18.39;100.00;64904.66;5052611;28;20281;-62
2023/05/28 09:33:27;;;;;;;4.32;3.60;;;;;;;18.29;100.00;64896.16;5052776;28;20225;-60
2023/05/28 09:36:00;;;;;;;4.50;3.33;;;;;;;18.26;100.00;64892.88;5052762;28;20566;-61
2023/05/28 09:38:26;;;;;;;6.53;3.90;;;;;;;18.20;100.00;64883.72;5052682;28;20245;-59
2023/05/28 09:40:56;;;;;;;5.20;3.58;;;;;;;17.96;100.00;64855.22;5052640;28;20186;-62
2023/05/28 09:43:31;;;;;;;9.38;3.75;;;;;;;17.55;100.00;64812.59;5052646;28;20263;-61
2023/05/28 09:46:07;;;;;;;6.90;3.72;;;;;;;17.66;100.00;64824.72;5052609;28;20696;-63
2023/05/28 09:48:32;;;;;;;6.32;3.80;;;;;;;17.67;100.00;64825.81;5052882;28;20205;-61
2023/05/28 09:51:01;;;;;;;4.22;3.58;;;;;;;17.65;100.00;64826.16;5052525;28;20201;-61
2023/05/28 09:53:29;;;;;;;4.32;3.55;;;;;;;17.57;100.00;64815.34;5050746;28;20220;-60
2023/05/28 09:55:57;;;;;;;4.85;3.80;;;;;;;17.69;100.00;64828.03;5051651;28;20216;-60
2023/05/28 09:58:29;;;;;;;5.38;3.47;;;;;;;17.77;100.00;64839.41;5052677;28;20350;-60
2023/05/28 10:00:57;;;;;;;5.15;3.30;;;;;;;17.67;100.00;64827.81;5052177;28;20192;-63
2023/05/28 10:03:43;;;;;;;4.32;3.00;;;;;;;17.79;100.00;64839.06;5051959;28;20374;-60
2023/05/28 10:06:18;;;;;;;7.85;3.38;;;;;;;17.86;100.00;64846.75;5052267;28;20185;-60
2023/05/28 10:08:48;;;;;;;6.25;3.40;;;;;;;17.85;100.00;64845.09;5052243;28;20249;-61
2023/05/28 10:11:18;;;;;;;4.18;3.17;;;;;;;17.74;100.00;64833.53;5052072;28;20185;-61
2023/05/28 10:13:44;;;;;;;2.97;2.60;;;;;;;17.97;100.00;64858.91;5051569;28;20761;-60
2023/05/28 10:16:10;;;;;;;4.70;2.80;;;;;;;17.92;100.00;64855.91;5050770;28;20186;-60
2023/05/28 10:18:36;;;;;;;5.53;3.88;;;;;;;18.12;100.00;64872.88;5051875;28;20206;-61
2023/05/28 10:21:02;;;;;;;3.15;2.85;;;;;;;18.00;100.00;64862.19;5051887;28;20208;-59
2023/05/28 10:23:28;;;;;;;5.97;3.28;;;;;;;18.31;100.00;64898.94;5063528;22;20223;-58
2023/05/28 10:25:54;;;;;;;4.60;3.33;;;;;;;18.56;100.00;64923.44;5072031;28;20196;-60
2023/05/28 10:28:21;;;;;;;3.95;3.50;;;;;;;18.77;100.00;64944.03;5071857;28;20586;-59
2023/05/28 10:30:59;;;;;;;4.40;3.83;;;;;;;18.63;100.00;64933.69;5071811;28;20189;-60
2023/05/28 10:33:25;;;;;;;5.47;4.35;;;;;;;18.74;100.00;64940.72;5072132;28;20212;-59
2023/05/28 10:35:53;;;;;;;5.47;4.20;;;;;;;18.88;100.00;64961.28;5071743;28;20193;-59
2023/05/28 10:38:19;;;;;;;5.20;4.57;;;;;;;18.70;100.00;64938.88;5071524;28;20220;-58
2023/05/28 10:40:45;;;;;;;7.13;4.57;;;;;;;18.99;100.00;64970.31;5070302;28;20201;-59
2023/05/28 10:43:38;;;;;;;7.18;4.60;;;;;;;18.81;100.00;64950.44;5071656;28;20215;-60
2023/05/28 10:46:10;;;;;;;4.68;4.28;;;;;;;18.66;100.00;64933.91;5071562;28;20655;-58
2023/05/28 10:49:08;;;;;;;6.03;4.45;;;;;;;18.81;100.00;64953.56;5070203;28;20259;-59
2023/05/28 10:51:49;;;;;;;5.95;4.07;;;;;;;19.12;100.00;64985.22;5071624;28;20682;-58
2023/05/28 10:54:44;;;;;;;4.85;4.13;;;;;;;19.51;98.15;65027.75;5071486;28;20223;-58
2023/05/28 10:57:23;;;;;;;6.45;4.65;;;;;;;19.98;96.13;65079.63;5071416;28;20202;-59
2023/05/28 10:59:59;;;;;;;5.10;4.45;;;;;;;20.16;95.35;65098.41;5070911;28;20558;-59
2023/05/28 11:02:27;;;;;;;6.18;4.45;;;;;;;20.19;93.97;65102.31;5070930;28;20237;-59
2023/05/28 11:04:55;;;;;;;5.32;4.18;;;;;;;20.37;91.27;65122.19;5070944;28;20224;-58
2023/05/28 11:07:22;;;;;;;6.28;4.22;;;;;;;20.21;90.67;65104.50;5070830;28;20184;-59
2023/05/28 11:09:51;;;;;;;4.53;3.65;;;;;;;20.12;92.77;65096.56;5070739;28;20746;-58
2023/05/28 11:12:19;;;;;;;4.93;4.47;;;;;;;20.25;90.35;65108.38;5070772;28;20185;-60
2023/05/28 11:14:45;;;;;;;5.30;4.80;;;;;;;20.31;93.37;65115.00;5071062;28;20295;-58
2023/05/28 11:17:12;;;;;;;5.55;4.07;;;;;;;19.97;93.48;65078.53;5070809;28;20231;-59
2023/05/28 11:19:46;;;;;;;7.72;4.97;;;;;;;20.01;93.60;65082.97;5086405;28;20212;-59
2023/05/28 11:22:12;;;;;;;5.10;4.50;;;;;;;19.84;94.45;65063.63;5070789;28;20193;-58
2023/05/28 11:24:58;;;;;;;6.78;4.53;;;;;;;19.70;90.27;65046.16;5070135;28;20258;-58